sensor_id;sensor_type;location;lat;lon;timestamp;P1;durP1;ratioP1;P2;durP2;ratioP2
23155;SDS011;11746;50.876;4.246;2023-06-22T00:02:02;6.10;;;3.95;;
23155;SDS011;11746;50.876;4.246;2023-06-22T00:04:28;8.10;;;4.70;;
23155;SDS011;11746;50.876;4.246;2023-06-22T00:06:54;8.00;;;4.53;;
23155;SDS011;11746;50.876;4.246;2023-06-22T00:09:20;9.35;;;4.32;;
23155;SDS011;11746;50.876;4.246;2023-06-22T00:11:45;6.72;;;3.92;;
23155;SDS011;11746;50.876;4.246;2023-06-22T00:14:12;5.50;;;4.22;;
23155;SDS011;11746;50.876;4.246;2023-06-22T00:16:37;5.70;;;4.43;;
23155;SDS011;11746;50.876;4.246;2023-06-22T00:19:03;7.30;;;4.65;;
23155;SDS011;11746;50.876;4.246;2023-06-22T00:21:30;8.65;;;4.38;;
23155;SDS011;11746;50.876;4.246;2023-06-22T00:23:56;6.40;;;4.85;;
23155;SDS011;11746;50.876;4.246;2023-06-22T00:26:22;6.47;;;4.90;;
23155;SDS011;11746;50.876;4.246;2023-06-22T00:28:48;5.53;;;4.35;;
23155;SDS011;11746;50.876;4.246;2023-06-22T00:31:14;8.90;;;4.78;;
23155;SDS011;11746;50.876;4.246;2023-06-22T00:33:40;5.35;;;3.97;;
23155;SDS011;11746;50.876;4.246;2023-06-22T00:36:06;6.80;;;4.47;;
23155;SDS011;11746;50.876;4.246;2023-06-22T00:38:33;7.22;;;4.15;;
23155;SDS011;11746;50.876;4.246;2023-06-22T00:40:59;5.20;;;4.20;;
23155;SDS011;11746;50.876;4.246;2023-06-22T00:43:25;6.05;;;3.67;;
23155;SDS011;11746;50.876;4.246;2023-06-22T00:45:51;6.45;;;3.33;;
23155;SDS011;11746;50.876;4.246;2023-06-22T00:48:17;5.15;;;3.35;;
23155;SDS011;11746;50.876;4.246;2023-06-22T00:50:43;5.25;;;3.25;;
23155;SDS011;11746;50.876;4.246;2023-06-22T00:53:09;6.75;;;3.47;;
23155;SDS011;11746;50.876;4.246;2023-06-22T00:55:39;4.72;;;3.33;;
23155;SDS011;11746;50.876;4.246;2023-06-22T00:58:16;4.78;;;3.33;;
23155;SDS011;11746;50.876;4.246;2023-06-22T01:00:46;5.75;;;3.03;;
23155;SDS011;11746;50.876;4.246;2023-06-22T01:03:13;4.13;;;3.30;;
23155;SDS011;11746;50.876;4.246;2023-06-22T01:05:39;4.72;;;2.72;;
23155;SDS011;11746;50.876;4.246;2023-06-22T01:11:17;6.47;;;3.33;;
23155;SDS011;11746;50.876;4.246;2023-06-22T01:14:24;5.10;;;3.20;;
23155;SDS011;11746;50.876;4.246;2023-06-22T01:16:58;5.85;;;3.83;;
23155;SDS011;11746;50.876;4.246;2023-06-22T01:22:01;4.70;;;3.50;;
23155;SDS011;11746;50.876;4.246;2023-06-22T01:24:32;12.70;;;3.72;;
23155;SDS011;11746;50.876;4.246;2023-06-22T01:27:14;6.25;;;3.60;;
23155;SDS011;11746;50.876;4.246;2023-06-22T01:29:52;5.38;;;4.00;;
23155;SDS011;11746;50.876;4.246;2023-06-22T01:32:30;7.43;;;3.58;;
23155;SDS011;11746;50.876;4.246;2023-06-22T01:34:58;7.13;;;3.97;;
23155;SDS011;11746;50.876;4.246;2023-06-22T01:37:27;6.38;;;3.88;;
23155;SDS011;11746;50.876;4.246;2023-06-22T01:39:54;4.90;;;3.65;;
23155;SDS011;11746;50.876;4.246;2023-06-22T01:42:21;7.10;;;3.58;;
23155;SDS011;11746;50.876;4.246;2023-06-22T01:44:50;5.25;;;3.40;;
23155;SDS011;11746;50.876;4.246;2023-06-22T01:47:23;5.30;;;3.40;;
23155;SDS011;11746;50.876;4.246;2023-06-22T01:49:50;7.20;;;3.92;;
23155;SDS011;11746;50.876;4.246;2023-06-22T01:52:17;5.72;;;4.20;;
23155;SDS011;11746;50.876;4.246;2023-06-22T01:54:44;5.07;;;3.75;;
23155;SDS011;11746;50.876;4.246;2023-06-22T01:57:09;6.18;;;3.90;;
23155;SDS011;11746;50.876;4.246;2023-06-22T02:02:13;5.10;;;3.90;;
23155;SDS011;11746;50.876;4.246;2023-06-22T02:07:13;7.95;;;3.88;;
23155;SDS011;11746;50.876;4.246;2023-06-22T02:09:45;5.93;;;3.88;;
23155;SDS011;11746;50.876;4.246;2023-06-22T02:12:15;4.95;;;3.63;;
23155;SDS011;11746;50.876;4.246;2023-06-22T02:14:45;8.68;;;4.10;;
23155;SDS011;11746;50.876;4.246;2023-06-22T02:17:11;4.70;;;3.30;;
23155;SDS011;11746;50.876;4.246;2023-06-22T02:19:40;6.78;;;3.28;;
23155;SDS011;11746;50.876;4.246;2023-06-22T02:22:09;6.68;;;3.90;;
23155;SDS011;11746;50.876;4.246;2023-06-22T02:24:34;7.68;;;4.55;;
23155;SDS011;11746;50.876;4.246;2023-06-22T02:27:01;7.28;;;3.45;;
23155;SDS011;11746;50.876;4.246;2023-06-22T02:29:28;6.32;;;3.85;;
23155;SDS011;11746;50.876;4.246;2023-06-22T02:31:54;7.00;;;4.30;;
23155;SDS011;11746;50.876;4.246;2023-06-22T02:34:20;5.43;;;4.07;;
23155;SDS011;11746;50.876;4.246;2023-06-22T02:36:47;8.50;;;4.60;;
23155;SDS011;11746;50.876;4.246;2023-06-22T02:39:18;7.25;;;4.53;;
23155;SDS011;11746;50.876;4.246;2023-06-22T02:41:49;7.07;;;4.47;;
23155;SDS011;11746;50.876;4.246;2023-06-22T02:44:16;6.07;;;3.97;;
23155;SDS011;11746;50.876;4.246;2023-06-22T02:46:43;6.13;;;4.28;;
23155;SDS011;11746;50.876;4.246;2023-06-22T02:49:09;6.28;;;4.13;;
23155;SDS011;11746;50.876;4.246;2023-06-22T02:51:37;8.73;;;4.60;;
23155;SDS011;11746;50.876;4.246;2023-06-22T02:54:05;7.78;;;4.60;;
23155;SDS011;11746;50.876;4.246;2023-06-22T02:56:31;5.93;;;4.68;;
23155;SDS011;11746;50.876;4.246;2023-06-22T02:58:57;7.00;;;3.83;;
23155;SDS011;11746;50.876;4.246;2023-06-22T03:01:26;6.97;;;4.82;;
23155;SDS011;11746;50.876;4.246;2023-06-22T03:03:53;5.53;;;4.22;;
23155;SDS011;11746;50.876;4.246;2023-06-22T03:06:20;6.88;;;4.03;;
23155;SDS011;11746;50.876;4.246;2023-06-22T03:08:48;7.40;;;5.10;;
23155;SDS011;11746;50.876;4.246;2023-06-22T03:11:15;8.43;;;4.70;;
23155;SDS011;11746;50.876;4.246;2023-06-22T03:13:41;8.07;;;4.47;;
23155;SDS011;11746;50.876;4.246;2023-06-22T03:16:07;8.57;;;5.45;;
23155;SDS011;11746;50.876;4.246;2023-06-22T03:18:33;7.72;;;4.78;;
23155;SDS011;11746;50.876;4.246;2023-06-22T03:20:59;8.00;;;5.00;;
23155;SDS011;11746;50.876;4.246;2023-06-22T03:23:27;7.70;;;5.45;;
23155;SDS011;11746;50.876;4.246;2023-06-22T03:25:52;8.60;;;5.60;;
23155;SDS011;11746;50.876;4.246;2023-06-22T03:28:21;8.75;;;5.20;;
23155;SDS011;11746;50.876;4.246;2023-06-22T03:30:47;6.60;;;4.82;;
23155;SDS011;11746;50.876;4.246;2023-06-22T03:33:13;9.70;;;5.28;;
23155;SDS011;11746;50.876;4.246;2023-06-22T03:35:38;7.95;;;5.45;;
23155;SDS011;11746;50.876;4.246;2023-06-22T03:38:07;8.70;;;5.43;;
23155;SDS011;11746;50.876;4.246;2023-06-22T03:40:33;9.70;;;5.30;;
23155;SDS011;11746;50.876;4.246;2023-06-22T03:42:58;9.60;;;5.80;;
23155;SDS011;11746;50.876;4.246;2023-06-22T03:45:24;7.55;;;5.55;;
23155;SDS011;11746;50.876;4.246;2023-06-22T03:47:50;8.00;;;5.68;;
23155;SDS011;11746;50.876;4.246;2023-06-22T03:50:16;9.10;;;5.15;;
23155;SDS011;11746;50.876;4.246;2023-06-22T03:52:45;7.63;;;5.60;;
23155;SDS011;11746;50.876;4.246;2023-06-22T03:55:11;8.52;;;5.80;;
23155;SDS011;11746;50.876;4.246;2023-06-22T03:57:37;8.77;;;6.07;;
23155;SDS011;11746;50.876;4.246;2023-06-22T04:00:03;7.93;;;6.03;;
23155;SDS011;11746;50.876;4.246;2023-06-22T04:02:31;9.27;;;5.97;;
23155;SDS011;11746;50.876;4.246;2023-06-22T04:04:57;9.60;;;5.90;;
23155;SDS011;11746;50.876;4.246;2023-06-22T04:07:23;15.30;;;6.10;;
23155;SDS011;11746;50.876;4.246;2023-06-22T04:09:48;8.70;;;5.78;;
23155;SDS011;11746;50.876;4.246;2023-06-22T04:12:14;8.27;;;6.10;;
23155;SDS011;11746;50.876;4.246;2023-06-22T04:14:40;10.50;;;6.80;;
23155;SDS011;11746;50.876;4.246;2023-06-22T04:17:06;9.98;;;6.25;;
23155;SDS011;11746;50.876;4.246;2023-06-22T04:19:32;10.63;;;7.10;;
23155;SDS011;11746;50.876;4.246;2023-06-22T04:21:58;20.83;;;6.95;;
23155;SDS011;11746;50.876;4.246;2023-06-22T04:24:24;21.77;;;6.38;;
23155;SDS011;11746;50.876;4.246;2023-06-22T04:26:50;12.95;;;6.95;;
23155;SDS011;11746;50.876;4.246;2023-06-22T04:29:20;9.18;;;5.93;;
23155;SDS011;11746;50.876;4.246;2023-06-22T04:31:56;41.25;;;8.70;;
23155;SDS011;11746;50.876;4.246;2023-06-22T04:34:23;11.38;;;6.60;;
23155;SDS011;11746;50.876;4.246;2023-06-22T04:36:52;9.70;;;6.63;;
23155;SDS011;11746;50.876;4.246;2023-06-22T04:39:18;9.68;;;6.60;;
23155;SDS011;11746;50.876;4.246;2023-06-22T04:41:44;7.95;;;5.80;;
23155;SDS011;11746;50.876;4.246;2023-06-22T04:44:14;10.63;;;6.65;;
23155;SDS011;11746;50.876;4.246;2023-06-22T04:47:02;9.88;;;6.65;;
23155;SDS011;11746;50.876;4.246;2023-06-22T04:49:29;9.77;;;6.63;;
23155;SDS011;11746;50.876;4.246;2023-06-22T04:51:59;8.98;;;6.40;;
23155;SDS011;11746;50.876;4.246;2023-06-22T04:54:26;10.52;;;7.07;;
23155;SDS011;11746;50.876;4.246;2023-06-22T04:56:52;10.18;;;6.70;;
23155;SDS011;11746;50.876;4.246;2023-06-22T04:59:24;9.48;;;6.55;;
23155;SDS011;11746;50.876;4.246;2023-06-22T05:01:58;11.23;;;6.97;;
23155;SDS011;11746;50.876;4.246;2023-06-22T05:04:26;11.20;;;7.20;;
23155;SDS011;11746;50.876;4.246;2023-06-22T05:06:56;11.30;;;7.28;;
23155;SDS011;11746;50.876;4.246;2023-06-22T05:09:23;11.82;;;7.35;;
23155;SDS011;11746;50.876;4.246;2023-06-22T05:11:50;11.70;;;7.50;;
23155;SDS011;11746;50.876;4.246;2023-06-22T05:14:16;11.25;;;7.82;;
23155;SDS011;11746;50.876;4.246;2023-06-22T05:16:42;11.20;;;7.57;;
23155;SDS011;11746;50.876;4.246;2023-06-22T05:19:09;10.57;;;8.00;;
23155;SDS011;11746;50.876;4.246;2023-06-22T05:21:35;11.32;;;7.82;;
23155;SDS011;11746;50.876;4.246;2023-06-22T05:24:01;11.25;;;7.50;;
23155;SDS011;11746;50.876;4.246;2023-06-22T05:26:28;30.40;;;9.45;;
23155;SDS011;11746;50.876;4.246;2023-06-22T05:28:55;11.70;;;7.60;;
23155;SDS011;11746;50.876;4.246;2023-06-22T05:31:22;12.02;;;8.32;;
23155;SDS011;11746;50.876;4.246;2023-06-22T05:33:48;13.52;;;8.13;;
23155;SDS011;11746;50.876;4.246;2023-06-22T05:36:16;11.20;;;8.48;;
23155;SDS011;11746;50.876;4.246;2023-06-22T05:38:43;11.32;;;8.13;;
23155;SDS011;11746;50.876;4.246;2023-06-22T05:41:09;12.38;;;8.32;;
23155;SDS011;11746;50.876;4.246;2023-06-22T05:43:35;11.55;;;8.55;;
23155;SDS011;11746;50.876;4.246;2023-06-22T05:46:01;12.80;;;8.00;;
23155;SDS011;11746;50.876;4.246;2023-06-22T05:48:27;13.90;;;8.57;;
23155;SDS011;11746;50.876;4.246;2023-06-22T05:50:53;11.02;;;8.02;;
23155;SDS011;11746;50.876;4.246;2023-06-22T05:53:19;12.20;;;8.45;;
23155;SDS011;11746;50.876;4.246;2023-06-22T05:55:45;13.82;;;8.88;;
23155;SDS011;11746;50.876;4.246;2023-06-22T05:58:11;12.05;;;8.57;;
23155;SDS011;11746;50.876;4.246;2023-06-22T06:00:38;12.40;;;8.25;;
23155;SDS011;11746;50.876;4.246;2023-06-22T06:03:06;12.68;;;8.20;;
23155;SDS011;11746;50.876;4.246;2023-06-22T06:05:32;13.25;;;8.90;;
23155;SDS011;11746;50.876;4.246;2023-06-22T06:07:59;12.50;;;8.45;;
23155;SDS011;11746;50.876;4.246;2023-06-22T06:10:26;15.00;;;8.95;;
23155;SDS011;11746;50.876;4.246;2023-06-22T06:12:54;13.57;;;9.10;;
23155;SDS011;11746;50.876;4.246;2023-06-22T06:15:21;11.82;;;9.18;;
23155;SDS011;11746;50.876;4.246;2023-06-22T06:17:47;15.38;;;9.43;;
23155;SDS011;11746;50.876;4.246;2023-06-22T06:20:25;15.23;;;9.65;;
23155;SDS011;11746;50.876;4.246;2023-06-22T06:22:55;12.30;;;9.32;;
23155;SDS011;11746;50.876;4.246;2023-06-22T06:25:21;15.07;;;10.25;;
23155;SDS011;11746;50.876;4.246;2023-06-22T06:27:48;13.50;;;10.10;;
23155;SDS011;11746;50.876;4.246;2023-06-22T06:30:16;16.25;;;9.88;;
23155;SDS011;11746;50.876;4.246;2023-06-22T06:32:44;18.08;;;10.73;;
23155;SDS011;11746;50.876;4.246;2023-06-22T06:35:13;12.82;;;10.48;;
23155;SDS011;11746;50.876;4.246;2023-06-22T06:37:41;13.55;;;9.98;;
23155;SDS011;11746;50.876;4.246;2023-06-22T06:40:09;14.60;;;10.55;;
23155;SDS011;11746;50.876;4.246;2023-06-22T06:42:41;15.55;;;10.73;;
23155;SDS011;11746;50.876;4.246;2023-06-22T06:45:10;14.40;;;10.50;;
23155;SDS011;11746;50.876;4.246;2023-06-22T06:47:47;14.80;;;10.52;;
23155;SDS011;11746;50.876;4.246;2023-06-22T06:50:14;13.18;;;10.20;;
23155;SDS011;11746;50.876;4.246;2023-06-22T06:52:40;14.25;;;10.27;;
23155;SDS011;11746;50.876;4.246;2023-06-22T06:55:07;12.82;;;10.27;;
23155;SDS011;11746;50.876;4.246;2023-06-22T06:57:37;13.68;;;10.75;;
23155;SDS011;11746;50.876;4.246;2023-06-22T07:00:06;14.88;;;10.80;;
23155;SDS011;11746;50.876;4.246;2023-06-22T07:02:41;17.48;;;10.52;;
23155;SDS011;11746;50.876;4.246;2023-06-22T07:05:08;16.40;;;12.05;;
23155;SDS011;11746;50.876;4.246;2023-06-22T07:07:35;14.05;;;10.82;;
23155;SDS011;11746;50.876;4.246;2023-06-22T07:10:01;18.70;;;10.85;;
23155;SDS011;11746;50.876;4.246;2023-06-22T07:12:28;13.98;;;10.82;;
23155;SDS011;11746;50.876;4.246;2023-06-22T07:14:57;14.00;;;11.48;;
23155;SDS011;11746;50.876;4.246;2023-06-22T07:17:30;17.75;;;11.82;;
23155;SDS011;11746;50.876;4.246;2023-06-22T07:19:56;18.15;;;11.98;;
23155;SDS011;11746;50.876;4.246;2023-06-22T07:22:22;17.30;;;12.10;;
23155;SDS011;11746;50.876;4.246;2023-06-22T07:24:48;15.45;;;12.20;;
23155;SDS011;11746;50.876;4.246;2023-06-22T07:27:14;17.40;;;11.63;;
23155;SDS011;11746;50.876;4.246;2023-06-22T07:29:44;14.00;;;11.30;;
23155;SDS011;11746;50.876;4.246;2023-06-22T07:32:10;14.52;;;12.10;;
23155;SDS011;11746;50.876;4.246;2023-06-22T07:34:36;16.02;;;12.18;;
23155;SDS011;11746;50.876;4.246;2023-06-22T07:37:02;13.00;;;11.50;;
23155;SDS011;11746;50.876;4.246;2023-06-22T07:39:29;17.70;;;13.55;;
23155;SDS011;11746;50.876;4.246;2023-06-22T07:41:57;16.42;;;12.30;;
23155;SDS011;11746;50.876;4.246;2023-06-22T07:44:23;15.98;;;12.52;;
23155;SDS011;11746;50.876;4.246;2023-06-22T07:46:51;15.00;;;11.18;;
23155;SDS011;11746;50.876;4.246;2023-06-22T07:49:17;17.75;;;12.65;;
23155;SDS011;11746;50.876;4.246;2023-06-22T07:51:43;15.48;;;12.77;;
23155;SDS011;11746;50.876;4.246;2023-06-22T07:54:09;15.30;;;11.88;;
23155;SDS011;11746;50.876;4.246;2023-06-22T07:56:36;17.02;;;12.90;;
23155;SDS011;11746;50.876;4.246;2023-06-22T07:59:02;23.55;;;14.05;;
23155;SDS011;11746;50.876;4.246;2023-06-22T08:01:29;18.67;;;13.55;;
23155;SDS011;11746;50.876;4.246;2023-06-22T08:03:55;42.80;;;13.80;;
23155;SDS011;11746;50.876;4.246;2023-06-22T08:06:21;17.67;;;12.93;;
23155;SDS011;11746;50.876;4.246;2023-06-22T08:08:47;16.58;;;12.15;;
23155;SDS011;11746;50.876;4.246;2023-06-22T08:11:14;14.90;;;11.65;;
23155;SDS011;11746;50.876;4.246;2023-06-22T08:13:40;15.52;;;12.13;;
23155;SDS011;11746;50.876;4.246;2023-06-22T08:16:05;15.80;;;11.70;;
23155;SDS011;11746;50.876;4.246;2023-06-22T08:18:32;15.60;;;11.05;;
23155;SDS011;11746;50.876;4.246;2023-06-22T08:20:58;18.85;;;12.45;;
23155;SDS011;11746;50.876;4.246;2023-06-22T08:23:24;14.32;;;11.38;;
23155;SDS011;11746;50.876;4.246;2023-06-22T08:25:50;14.45;;;11.15;;
23155;SDS011;11746;50.876;4.246;2023-06-22T08:28:18;18.98;;;11.40;;
23155;SDS011;11746;50.876;4.246;2023-06-22T08:30:44;15.77;;;11.27;;
23155;SDS011;11746;50.876;4.246;2023-06-22T08:33:10;14.98;;;11.15;;
23155;SDS011;11746;50.876;4.246;2023-06-22T08:35:36;13.73;;;11.23;;
23155;SDS011;11746;50.876;4.246;2023-06-22T08:38:01;16.88;;;11.90;;
23155;SDS011;11746;50.876;4.246;2023-06-22T08:40:27;15.10;;;11.85;;
23155;SDS011;11746;50.876;4.246;2023-06-22T08:42:54;18.50;;;12.80;;
23155;SDS011;11746;50.876;4.246;2023-06-22T08:45:20;39.40;;;13.93;;
23155;SDS011;11746;50.876;4.246;2023-06-22T08:47:46;13.70;;;11.18;;
23155;SDS011;11746;50.876;4.246;2023-06-22T08:50:12;16.35;;;12.82;;
23155;SDS011;11746;50.876;4.246;2023-06-22T08:52:39;13.80;;;12.30;;
23155;SDS011;11746;50.876;4.246;2023-06-22T08:55:08;14.93;;;11.90;;
23155;SDS011;11746;50.876;4.246;2023-06-22T08:57:34;15.32;;;12.20;;
23155;SDS011;11746;50.876;4.246;2023-06-22T09:00:05;16.02;;;13.32;;
23155;SDS011;11746;50.876;4.246;2023-06-22T09:02:40;14.95;;;12.63;;
23155;SDS011;11746;50.876;4.246;2023-06-22T09:05:05;19.73;;;13.60;;
23155;SDS011;11746;50.876;4.246;2023-06-22T09:07:32;17.83;;;13.27;;
23155;SDS011;11746;50.876;4.246;2023-06-22T09:09:59;15.88;;;12.63;;
23155;SDS011;11746;50.876;4.246;2023-06-22T09:12:25;17.48;;;12.95;;
23155;SDS011;11746;50.876;4.246;2023-06-22T09:14:52;17.52;;;13.35;;
23155;SDS011;11746;50.876;4.246;2023-06-22T09:17:18;17.15;;;11.93;;
23155;SDS011;11746;50.876;4.246;2023-06-22T09:19:44;16.25;;;13.65;;
23155;SDS011;11746;50.876;4.246;2023-06-22T09:22:11;17.58;;;13.20;;
23155;SDS011;11746;50.876;4.246;2023-06-22T09:24:37;16.90;;;13.88;;
23155;SDS011;11746;50.876;4.246;2023-06-22T09:27:03;15.48;;;13.80;;
23155;SDS011;11746;50.876;4.246;2023-06-22T09:29:29;20.00;;;14.60;;
23155;SDS011;11746;50.876;4.246;2023-06-22T09:31:58;18.60;;;15.32;;
23155;SDS011;11746;50.876;4.246;2023-06-22T09:34:24;15.45;;;13.35;;
23155;SDS011;11746;50.876;4.246;2023-06-22T09:36:50;17.95;;;14.57;;
23155;SDS011;11746;50.876;4.246;2023-06-22T09:39:17;18.85;;;15.70;;
23155;SDS011;11746;50.876;4.246;2023-06-22T09:41:44;19.45;;;14.80;;
23155;SDS011;11746;50.876;4.246;2023-06-22T09:44:10;19.58;;;14.93;;
23155;SDS011;11746;50.876;4.246;2023-06-22T09:46:36;19.95;;;15.15;;
23155;SDS011;11746;50.876;4.246;2023-06-22T09:49:01;19.75;;;14.52;;
23155;SDS011;11746;50.876;4.246;2023-06-22T09:51:27;20.67;;;15.48;;
23155;SDS011;11746;50.876;4.246;2023-06-22T09:53:53;23.30;;;16.73;;
23155;SDS011;11746;50.876;4.246;2023-06-22T09:56:21;26.42;;;18.15;;
23155;SDS011;11746;50.876;4.246;2023-06-22T09:58:47;26.48;;;16.73;;
23155;SDS011;11746;50.876;4.246;2023-06-22T10:01:15;28.88;;;16.92;;
23155;SDS011;11746;50.876;4.246;2023-06-22T10:03:41;19.70;;;15.60;;
23155;SDS011;11746;50.876;4.246;2023-06-22T10:06:07;22.30;;;16.27;;
23155;SDS011;11746;50.876;4.246;2023-06-22T10:08:34;17.52;;;11.77;;
23155;SDS011;11746;50.876;4.246;2023-06-22T10:11:00;15.73;;;12.27;;
23155;SDS011;11746;50.876;4.246;2023-06-22T10:13:26;15.98;;;13.40;;
23155;SDS011;11746;50.876;4.246;2023-06-22T10:15:52;16.27;;;13.20;;
23155;SDS011;11746;50.876;4.246;2023-06-22T10:18:18;15.68;;;13.68;;
23155;SDS011;11746;50.876;4.246;2023-06-22T10:20:47;16.52;;;13.35;;
23155;SDS011;11746;50.876;4.246;2023-06-22T10:23:17;17.23;;;14.30;;
23155;SDS011;11746;50.876;4.246;2023-06-22T10:25:44;19.08;;;14.00;;
23155;SDS011;11746;50.876;4.246;2023-06-22T10:28:10;18.85;;;14.73;;
23155;SDS011;11746;50.876;4.246;2023-06-22T10:30:37;20.45;;;15.68;;
23155;SDS011;11746;50.876;4.246;2023-06-22T10:33:10;18.75;;;15.55;;
23155;SDS011;11746;50.876;4.246;2023-06-22T10:35:37;22.10;;;18.20;;
23155;SDS011;11746;50.876;4.246;2023-06-22T10:38:03;22.75;;;18.70;;
23155;SDS011;11746;50.876;4.246;2023-06-22T10:40:29;22.52;;;18.95;;
23155;SDS011;11746;50.876;4.246;2023-06-22T10:42:56;24.52;;;17.00;;
23155;SDS011;11746;50.876;4.246;2023-06-22T10:45:22;21.20;;;16.77;;
23155;SDS011;11746;50.876;4.246;2023-06-22T10:47:48;20.48;;;17.38;;
23155;SDS011;11746;50.876;4.246;2023-06-22T10:50:15;24.92;;;17.95;;
23155;SDS011;11746;50.876;4.246;2023-06-22T10:52:41;17.63;;;15.82;;
23155;SDS011;11746;50.876;4.246;2023-06-22T10:55:07;18.25;;;15.30;;
23155;SDS011;11746;50.876;4.246;2023-06-22T10:57:34;17.98;;;14.45;;
23155;SDS011;11746;50.876;4.246;2023-06-22T11:00:00;19.30;;;14.52;;
23155;SDS011;11746;50.876;4.246;2023-06-22T11:02:26;18.50;;;14.50;;
23155;SDS011;11746;50.876;4.246;2023-06-22T11:04:53;18.50;;;15.52;;
23155;SDS011;11746;50.876;4.246;2023-06-22T11:07:19;17.23;;;14.55;;
23155;SDS011;11746;50.876;4.246;2023-06-22T11:09:45;17.48;;;15.02;;
23155;SDS011;11746;50.876;4.246;2023-06-22T11:12:11;19.20;;;15.60;;
23155;SDS011;11746;50.876;4.246;2023-06-22T11:14:37;21.85;;;16.48;;
23155;SDS011;11746;50.876;4.246;2023-06-22T11:17:04;22.88;;;17.65;;
23155;SDS011;11746;50.876;4.246;2023-06-22T11:19:30;21.67;;;17.33;;
23155;SDS011;11746;50.876;4.246;2023-06-22T11:21:56;22.63;;;18.05;;
23155;SDS011;11746;50.876;4.246;2023-06-22T11:24:22;21.90;;;18.80;;
23155;SDS011;11746;50.876;4.246;2023-06-22T11:26:48;21.25;;;18.33;;
23155;SDS011;11746;50.876;4.246;2023-06-22T11:29:14;23.90;;;18.60;;
23155;SDS011;11746;50.876;4.246;2023-06-22T11:31:39;20.20;;;17.05;;
23155;SDS011;11746;50.876;4.246;2023-06-22T11:34:07;22.48;;;17.70;;
23155;SDS011;11746;50.876;4.246;2023-06-22T11:36:33;19.80;;;17.10;;
23155;SDS011;11746;50.876;4.246;2023-06-22T11:39:00;20.63;;;17.42;;
23155;SDS011;11746;50.876;4.246;2023-06-22T11:41:27;21.52;;;17.65;;
23155;SDS011;11746;50.876;4.246;2023-06-22T11:43:53;24.02;;;17.73;;
23155;SDS011;11746;50.876;4.246;2023-06-22T11:46:19;21.33;;;17.25;;
23155;SDS011;11746;50.876;4.246;2023-06-22T11:48:44;22.00;;;17.13;;
23155;SDS011;11746;50.876;4.246;2023-06-22T11:51:10;19.33;;;16.67;;
23155;SDS011;11746;50.876;4.246;2023-06-22T11:53:37;21.88;;;18.23;;
23155;SDS011;11746;50.876;4.246;2023-06-22T11:56:02;18.15;;;16.25;;
23155;SDS011;11746;50.876;4.246;2023-06-22T11:58:28;18.88;;;16.60;;
23155;SDS011;11746;50.876;4.246;2023-06-22T12:00:54;17.52;;;15.73;;
23155;SDS011;11746;50.876;4.246;2023-06-22T12:03:20;20.05;;;16.30;;
23155;SDS011;11746;50.876;4.246;2023-06-22T12:05:49;21.92;;;16.55;;
23155;SDS011;11746;50.876;4.246;2023-06-22T12:08:17;23.10;;;17.15;;
23155;SDS011;11746;50.876;4.246;2023-06-22T12:10:43;21.15;;;17.67;;
23155;SDS011;11746;50.876;4.246;2023-06-22T12:13:09;21.75;;;17.35;;
23155;SDS011;11746;50.876;4.246;2023-06-22T12:15:35;21.83;;;17.95;;
23155;SDS011;11746;50.876;4.246;2023-06-22T12:18:01;22.40;;;19.02;;
23155;SDS011;11746;50.876;4.246;2023-06-22T12:20:27;22.35;;;18.05;;
23155;SDS011;11746;50.876;4.246;2023-06-22T12:22:53;21.77;;;19.45;;
23155;SDS011;11746;50.876;4.246;2023-06-22T12:25:21;26.67;;;19.70;;
23155;SDS011;11746;50.876;4.246;2023-06-22T12:27:47;22.42;;;19.45;;
23155;SDS011;11746;50.876;4.246;2023-06-22T12:30:15;23.92;;;19.77;;
23155;SDS011;11746;50.876;4.246;2023-06-22T12:32:41;23.17;;;20.67;;
23155;SDS011;11746;50.876;4.246;2023-06-22T12:35:07;23.63;;;20.63;;
23155;SDS011;11746;50.876;4.246;2023-06-22T12:37:39;25.23;;;20.67;;
23155;SDS011;11746;50.876;4.246;2023-06-22T12:40:06;25.30;;;21.75;;
23155;SDS011;11746;50.876;4.246;2023-06-22T12:42:32;26.38;;;21.30;;
23155;SDS011;11746;50.876;4.246;2023-06-22T12:44:58;26.25;;;22.25;;
23155;SDS011;11746;50.876;4.246;2023-06-22T12:47:24;27.33;;;21.50;;
23155;SDS011;11746;50.876;4.246;2023-06-22T12:49:50;26.73;;;22.35;;
23155;SDS011;11746;50.876;4.246;2023-06-22T12:52:16;27.95;;;21.52;;
23155;SDS011;11746;50.876;4.246;2023-06-22T12:54:42;25.70;;;22.92;;
23155;SDS011;11746;50.876;4.246;2023-06-22T12:57:08;27.30;;;23.23;;
23155;SDS011;11746;50.876;4.246;2023-06-22T12:59:34;30.10;;;23.95;;
23155;SDS011;11746;50.876;4.246;2023-06-22T13:02:00;28.58;;;21.83;;
23155;SDS011;11746;50.876;4.246;2023-06-22T13:04:25;26.38;;;22.42;;
23155;SDS011;11746;50.876;4.246;2023-06-22T13:06:51;25.58;;;20.83;;
23155;SDS011;11746;50.876;4.246;2023-06-22T13:09:18;31.02;;;22.15;;
23155;SDS011;11746;50.876;4.246;2023-06-22T13:11:44;27.98;;;22.95;;
23155;SDS011;11746;50.876;4.246;2023-06-22T13:14:10;29.63;;;22.63;;
23155;SDS011;11746;50.876;4.246;2023-06-22T13:16:36;27.73;;;21.75;;
23155;SDS011;11746;50.876;4.246;2023-06-22T13:19:02;26.10;;;22.23;;
23155;SDS011;11746;50.876;4.246;2023-06-22T13:21:28;27.80;;;22.58;;
23155;SDS011;11746;50.876;4.246;2023-06-22T13:23:55;27.65;;;20.85;;
23155;SDS011;11746;50.876;4.246;2023-06-22T13:26:21;28.67;;;23.27;;
23155;SDS011;11746;50.876;4.246;2023-06-22T13:28:47;27.50;;;22.27;;
23155;SDS011;11746;50.876;4.246;2023-06-22T13:31:13;28.60;;;22.25;;
23155;SDS011;11746;50.876;4.246;2023-06-22T13:33:39;26.50;;;21.15;;
23155;SDS011;11746;50.876;4.246;2023-06-22T13:36:10;23.52;;;20.80;;
23155;SDS011;11746;50.876;4.246;2023-06-22T13:38:36;26.70;;;21.75;;
23155;SDS011;11746;50.876;4.246;2023-06-22T13:41:03;29.83;;;21.92;;
23155;SDS011;11746;50.876;4.246;2023-06-22T13:43:30;26.77;;;21.95;;
23155;SDS011;11746;50.876;4.246;2023-06-22T13:45:56;26.20;;;21.55;;
23155;SDS011;11746;50.876;4.246;2023-06-22T13:48:22;26.77;;;21.20;;
23155;SDS011;11746;50.876;4.246;2023-06-22T13:50:51;29.55;;;21.85;;
23155;SDS011;11746;50.876;4.246;2023-06-22T13:53:17;26.60;;;23.25;;
23155;SDS011;11746;50.876;4.246;2023-06-22T13:55:43;26.13;;;20.10;;
23155;SDS011;11746;50.876;4.246;2023-06-22T13:58:09;23.15;;;19.40;;
23155;SDS011;11746;50.876;4.246;2023-06-22T14:00:35;26.20;;;19.80;;
23155;SDS011;11746;50.876;4.246;2023-06-22T14:03:01;23.45;;;19.65;;
23155;SDS011;11746;50.876;4.246;2023-06-22T14:05:27;24.73;;;21.42;;
23155;SDS011;11746;50.876;4.246;2023-06-22T14:07:53;23.60;;;19.55;;
23155;SDS011;11746;50.876;4.246;2023-06-22T14:10:19;24.83;;;20.73;;
23155;SDS011;11746;50.876;4.246;2023-06-22T14:12:45;24.58;;;20.63;;
23155;SDS011;11746;50.876;4.246;2023-06-22T14:15:11;22.60;;;19.70;;
23155;SDS011;11746;50.876;4.246;2023-06-22T14:17:37;24.92;;;20.75;;
23155;SDS011;11746;50.876;4.246;2023-06-22T14:20:03;22.92;;;20.42;;
23155;SDS011;11746;50.876;4.246;2023-06-22T14:22:30;25.38;;;21.33;;
23155;SDS011;11746;50.876;4.246;2023-06-22T14:24:56;27.00;;;21.13;;
23155;SDS011;11746;50.876;4.246;2023-06-22T14:27:23;24.75;;;21.42;;
23155;SDS011;11746;50.876;4.246;2023-06-22T14:29:49;24.52;;;21.02;;
23155;SDS011;11746;50.876;4.246;2023-06-22T14:32:15;25.20;;;22.60;;
23155;SDS011;11746;50.876;4.246;2023-06-22T14:34:41;29.23;;;24.83;;
23155;SDS011;11746;50.876;4.246;2023-06-22T14:37:08;28.80;;;25.55;;
23155;SDS011;11746;50.876;4.246;2023-06-22T14:39:40;32.70;;;26.63;;
23155;SDS011;11746;50.876;4.246;2023-06-22T14:42:09;29.88;;;26.60;;